Latest Weather Observations for Edinburgh

IDS60801

Issued at 5:31 pm CST Monday 25 September 2017 (issued every 30 minutes, with the page automatically refreshed every 10 minutes)

About weather observations | Map of weather stations | Latest weather observations for SA | Other Formats
Station Details ID: 023083 Name: EDINBURGH RAAF Lat: -34.71 Lon: 138.62 Height: 16.54 m
Data from the previous 72 hours. | See also: Recent months at Edinburgh
Date/Time
CST
Temp
°C
App
Temp
°C
Dew
Point
°C
Rel
Hum
%
Delta-T
°C
Wind Press
QNH
hPa
Press
MSL
hPa
Rain since
9am
mm
Dir  Spd
km/h
Gust
km/h
Spd
kts
Gust
kts
25/05:30pm 15.6 11.5 6.3 54 4.5 SW 17 19 9 10 1014.1 1014.1 -
25/05:00pm 16.4 12.7 6.2 51 5.0 SW 15 20 8 11 1014.0 1014.0 0.0
25/04:30pm 16.8 12.8 6.6 51 5.0 SW 17 24 9 13 1013.8 1013.8 0.0
25/04:00pm 17.1 13.3 7.7 54 4.7 SW 17 24 9 13 1013.8 1013.8 0.0
25/03:30pm 17.3 13.5 9.0 58 4.3 WSW 19 24 10 13 1013.7 1013.7 0.0
25/03:00pm 17.2 13.2 8.1 55 4.6 SW 19 26 10 14 1013.8 1013.8 0.0
25/02:30pm 17.3 13.8 8.7 57 4.4 WSW 17 30 9 16 1014.1 1014.1 0.0
25/02:00pm 16.8 13.5 8.2 57 4.4 SW 15 22 8 12 1014.2 1014.2 0.0
25/01:30pm 17.1 13.7 9.3 60 4.1 WSW 17 24 9 13 1014.4 1014.4 0.0
25/01:00pm 16.7 13.5 10.1 65 3.5 WSW 17 24 9 13 1014.3 1014.3 0.0
25/12:30pm 16.0 12.1 7.2 56 4.4 WSW 17 22 9 12 1014.5 1014.5 0.0
25/12:00pm 16.1 12.7 9.1 63 3.6 WSW 17 26 9 14 1014.5 1014.5 0.0
25/11:30am 16.6 13.2 10.7 68 3.1 W 19 26 10 14 1014.5 1014.5 0.0
25/11:00am 15.3 11.7 8.3 63 3.5 W 17 26 9 14 1014.5 1014.5 0.0
25/10:30am 15.4 11.4 8.2 62 3.6 WSW 19 28 10 15 1014.3 1014.3 0.0
25/10:00am 14.9 11.3 8.4 65 3.3 W 17 26 9 14 1014.3 1014.3 0.0
25/09:30am 15.1 11.5 9.7 70 2.8 W 19 28 10 15 1014.2 1014.2 0.0
25/09:00am 14.4 10.7 9.4 72 2.6 WNW 19 24 10 13 1014.2 1014.2 0.0
25/08:30am 12.9 10.2 8.8 76 2.1 NNW 13 19 7 10 1014.0 1014.0 0.0
25/08:00am 11.0 8.4 7.9 81 1.5 N 11 17 6 9 1013.8 1013.8 0.0
25/07:30am 8.6 5.7 6.6 87 0.9 NNW 11 15 6 8 1013.4 1013.4 0.0
25/07:00am 7.5 4.8 5.8 89 0.8 NNE 9 13 5 7 1012.9 1012.9 0.0
25/06:30am 6.4 2.1 5.2 92 0.5 NNE 17 20 9 11 1012.2 1012.2 0.0
25/06:00am 5.6 1.8 4.1 90 0.6 NE 13 15 7 8 1011.2 1011.1 0.0
25/05:30am 6.5 3.2 4.7 88 0.8 NE 11 13 6 7 1011.0 1010.9 0.0
25/05:00am 7.4 5.1 5.5 88 0.8 ENE 7 9 4 5 1011.0 1010.9 0.0
25/04:30am 7.3 3.8 5.4 88 0.8 NE 13 15 7 8 1011.0 1010.9 0.0
25/04:00am 7.9 5.6 5.5 85 1.1 NNW 7 9 4 5 1010.6 1010.5 0.0
25/03:30am 8.2 5.5 5.5 83 1.2 NNW 9 13 5 7 1010.7 1010.6 0.0
25/03:00am 9.3 6.5 7.1 86 1.0 N 11 15 6 8 1010.6 1010.5 0.0
25/02:30am 9.7 6.5 6.8 82 1.4 WNW 13 15 7 8 1010.4 1010.3 0.0
25/02:00am 11.0 7.5 7.1 77 1.9 WNW 15 19 8 10 1010.4 1010.3 0.0
25/01:30am 11.0 7.5 7.1 77 1.9 WNW 15 22 8 12 1010.4 1010.3 0.0
25/01:00am 11.3 6.8 7.0 75 2.1 W 20 26 11 14 1010.4 1010.3 0.0
25/12:30am 11.6 6.7 6.7 72 2.3 W 22 33 12 18 1010.4 1010.3 0.0
25/12:00am 11.9 6.5 6.4 69 2.6 W 24 30 13 16 1010.5 1010.4 0.0
 
Date/Time
CST
Temp
°C
App
Temp
°C
Dew
Point
°C
Rel
Hum
%
Delta-T
°C
Wind Press
QNH
hPa
Press
MSL
hPa
Rain since
9am
mm
Dir  Spd
km/h
Gust
km/h
Spd
kts
Gust
kts
24/11:30pm 12.0 7.0 6.5 69 2.6 W 22 30 12 16 1010.5 1010.4 0.0
24/11:00pm 12.3 6.0 5.7 64 3.1 W 28 39 15 21 1010.4 1010.3 0.0
24/10:30pm 12.6 6.4 6.0 64 3.1 W 28 39 15 21 1010.4 1010.3 0.0
24/10:00pm 13.0 5.9 5.7 61 3.4 WSW 32 43 17 23 1010.2 1010.1 0.0
24/09:30pm 12.8 6.7 6.8 67 2.9 WSW 28 35 15 19 1010.0 1009.9 0.0
24/09:00pm 12.8 7.6 7.3 69 2.7 W 24 33 13 18 1010.1 1010.0 0.0
24/08:30pm 13.0 7.5 7.7 70 2.6 W 26 37 14 20 1009.9 1009.8 0.0
24/08:00pm 13.6 8.1 7.6 67 2.9 W 26 35 14 19 1009.6 1009.5 0.0
24/07:30pm 13.6 8.3 6.7 63 3.3 WSW 24 33 13 18 1009.2 1009.1 0.0
24/07:00pm 13.6 7.7 6.0 60 3.6 W 26 33 14 18 1008.7 1008.6 0.0
24/06:30pm 13.8 8.1 6.7 62 3.4 W 26 32 14 17 1008.1 1008.1 0.0
24/06:00pm 14.3 8.8 7.4 63 3.4 W 26 35 14 19 1007.9 1007.9 0.0
24/05:30pm 15.3 8.4 6.6 56 4.2 W 32 43 17 23 1007.6 1007.6 0.0
24/05:00pm 15.9 8.8 6.6 54 4.5 W 33 46 18 25 1007.3 1007.3 0.0
24/04:30pm 16.4 9.1 7.3 55 4.5 W 35 44 19 24 1006.7 1006.7 0.0
24/04:00pm 16.7 9.2 6.2 50 5.1 W 35 46 19 25 1006.5 1006.5 0.0
24/03:30pm 16.9 9.3 5.8 48 5.4 W 35 46 19 25 1006.2 1006.2 0.0
24/03:00pm 17.4 10.3 8.0 54 4.8 W 35 46 19 25 1006.1 1006.1 0.0
24/02:30pm 17.2 9.8 8.4 56 4.5 W 37 48 20 26 1006.1 1006.1 0.0
24/02:00pm 17.9 9.6 7.6 51 5.2 W 41 52 22 28 1005.9 1005.9 0.0
24/01:30pm 17.8 10.6 7.5 51 5.2 WNW 35 48 19 26 1006.0 1006.0 0.0
24/01:00pm 17.0 9.7 7.4 53 4.8 W 35 50 19 27 1005.9 1005.9 0.0
24/12:30pm 17.1 8.2 6.9 51 5.1 WNW 43 59 23 32 1006.0 1006.0 0.0
24/12:00pm 16.3 7.3 6.4 52 4.9 WNW 43 54 23 29 1005.9 1005.9 0.0
24/11:30am 16.5 8.4 7.2 54 4.6 WNW 39 52 21 28 1006.0 1006.0 0.0
24/11:00am 16.1 7.3 7.1 55 4.5 WNW 43 57 23 31 1005.8 1005.8 0.0
24/10:48am 17.0 8.2 7.4 53 4.8 WNW 43 63 23 34 1005.7 1005.7 0.0
24/10:30am 16.5 7.7 8.0 57 4.3 NW 44 56 24 30 1005.8 1005.8 0.0
24/10:00am 16.1 8.6 7.8 58 4.2 NW 37 50 20 27 1005.8 1005.8 0.0
24/09:30am 15.9 9.0 8.9 63 3.6 NW 35 52 19 28 1006.1 1006.1 0.0
24/09:00am 15.2 8.0 7.7 61 3.7 NW 35 44 19 24 1005.9 1005.9 0.0
24/08:30am 14.7 7.9 7.7 63 3.5 NW 33 50 18 27 1005.8 1005.8 0.0
24/08:27am 14.7 8.0 8.2 65 3.3 NW 33 50 18 27 1005.9 1005.9 0.0
24/08:00am 13.3 9.7 9.9 80 1.7 N 19 28 10 15 1005.6 1005.6 0.0
24/07:30am 11.4 8.0 9.0 85 1.2 N 17 20 9 11 1005.5 1005.5 0.0
24/07:00am 10.7 6.8 8.6 87 1.0 N 19 22 10 12 1005.1 1005.1 0.0
24/06:30am 10.8 7.7 8.7 87 1.0 N 15 20 8 11 1004.8 1004.8 0.0
24/06:00am 10.5 7.3 8.3 86 1.1 NNW 15 24 8 13 1004.7 1004.7 0.0
24/05:30am 11.9 8.5 9.1 83 1.4 NNW 17 19 9 10 1004.4 1004.4 0.0
24/05:00am 12.3 8.3 9.1 81 1.6 NW 20 26 11 14 1004.1 1004.1 0.0
24/04:30am 12.6 8.3 9.4 81 1.6 NW 22 28 12 15 1003.8 1003.8 0.0
24/04:00am 12.5 7.7 9.0 79 1.8 WNW 24 32 13 17 1003.6 1003.6 0.0
24/03:30am 12.8 7.3 9.1 78 1.9 WNW 28 35 15 19 1003.4 1003.4 0.0
24/03:00am 13.1 7.3 9.4 78 1.9 WNW 30 43 16 23 1003.4 1003.4 0.0
24/02:30am 13.4 7.6 9.5 77 2.0 WNW 30 39 16 21 1003.5 1003.5 0.0
24/02:00am 13.2 9.3 9.5 78 1.9 NW 20 30 11 16 1003.6 1003.6 0.0
24/01:30am 13.5 9.2 9.4 76 2.1 NW 22 30 12 16 1003.9 1003.9 0.0
24/01:00am 13.5 8.8 9.4 76 2.1 NW 24 32 13 17 1004.0 1004.0 0.0
24/12:30am 14.0 9.0 9.4 74 2.4 NW 26 35 14 19 1004.3 1004.3 0.0
24/12:00am 14.3 8.9 9.5 73 2.5 WNW 28 39 15 21 1004.6 1004.6 0.0
 
Date/Time
CST
Temp
°C
App
Temp
°C
Dew
Point
°C
Rel
Hum
%
Delta-T
°C
Wind Press
QNH
hPa
Press
MSL
hPa
Rain since
9am
mm
Dir  Spd
km/h
Gust
km/h
Spd
kts
Gust
kts
23/11:30pm 13.6 9.7 9.3 75 2.2 WNW 20 30 11 16 1004.6 1004.6 0.0
23/11:00pm 13.6 10.3 9.6 77 2.0 NW 17 26 9 14 1004.7 1004.7 0.0
23/10:30pm 13.9 10.0 9.5 75 2.3 NW 20 26 11 14 1004.8 1004.8 0.0
23/10:00pm 13.9 10.0 9.3 74 2.3 WNW 20 26 11 14 1005.0 1005.0 0.0
23/09:30pm 14.5 9.4 9.3 71 2.7 WNW 26 35 14 19 1005.1 1005.1 0.0
23/09:00pm 14.7 9.6 9.3 70 2.8 W 26 35 14 19 1005.0 1005.0 0.0
23/08:30pm 14.7 9.7 9.5 71 2.7 W 26 33 14 18 1004.9 1004.9 0.0
23/08:00pm 14.7 10.1 9.5 71 2.7 W 24 33 13 18 1004.9 1004.9 0.0
23/07:30pm 14.6 10.7 9.4 71 2.7 WNW 20 26 11 14 1004.7 1004.7 0.0
23/07:00pm 15.2 10.4 8.9 66 3.2 W 24 32 13 17 1004.1 1004.1 0.0
23/06:30pm 15.5 10.8 9.2 66 3.3 W 24 32 13 17 1003.8 1003.8 0.0
23/06:00pm 16.2 10.8 9.4 64 3.5 W 28 33 15 18 1003.5 1003.5 0.0
23/05:30pm 16.9 10.9 8.8 59 4.2 W 30 39 16 21 1003.2 1003.2 0.0
23/05:00pm 17.5 10.7 9.2 58 4.3 W 35 44 19 24 1002.9 1002.9 0.0
23/04:30pm 18.1 10.5 8.9 55 4.8 W 39 52 21 28 1002.7 1002.7 0.0
23/04:00pm 18.5 11.7 9.3 55 4.8 W 35 44 19 24 1002.6 1002.6 0.0
23/03:30pm 18.9 12.3 9.9 56 4.8 W 35 44 19 24 1002.5 1002.5 0.0
23/03:00pm 19.1 12.1 9.9 55 4.9 W 37 48 20 26 1002.3 1002.3 0.0
23/02:30pm 18.9 12.5 9.4 54 5.0 W 33 43 18 23 1002.0 1002.0 0.0
23/02:00pm 20.0 12.5 9.3 50 5.7 WNW 39 57 21 31 1001.7 1001.7 0.0
23/01:58pm 20.3 12.6 8.6 47 6.1 WNW 39 57 21 31 1001.7 1001.7 0.0
23/01:30pm 20.4 11.9 10.5 53 5.4 WNW 46 57 25 31 1001.3 1001.3 0.0
23/01:04pm 20.5 11.5 10.3 52 5.5 W 48 67 26 36 1000.9 1000.9 0.0
23/01:00pm 20.6 11.9 11.2 55 5.2 W 48 59 26 32 1000.8 1000.8 0.0
23/12:31pm 20.5 11.1 11.4 56 5.0 W 52 70 28 38 1000.4 1000.4 0.0
23/12:30pm 20.5 10.5 10.6 53 5.4 W 54 70 29 38 1000.3 1000.3 0.0
23/12:12pm 21.3 12.5 12.2 56 5.1 WNW 50 69 27 37 1000.0 1000.0 0.0
23/12:00pm 21.2 11.7 11.0 52 5.6 WNW 52 67 28 36 999.8 999.8 0.0
23/11:32am 22.7 14.2 10.8 47 6.6 WNW 46 65 25 35 998.9 998.9 0.0
23/11:30am 22.8 14.7 10.9 47 6.6 WNW 44 59 24 32 998.9 998.9 0.0
23/11:09am 22.7 15.4 11.4 49 6.3 WNW 41 59 22 32 998.5 998.5 0.0
23/11:00am 23.1 16.3 10.5 45 6.9 NW 37 54 20 29 998.4 998.4 0.0
23/10:56am 23.1 16.4 9.8 43 7.2 NW 35 54 19 29 998.2 998.2 0.0
23/10:30am 21.8 18.4 13.7 60 4.7 NNW 24 35 13 19 997.9 997.9 0.0
23/10:00am 20.4 17.7 13.4 64 4.0 NNW 20 28 11 15 998.0 998.0 0.0
23/09:30am 18.8 17.7 14.3 75 2.6 N 13 19 7 10 997.9 997.9 0.0
23/09:00am 17.7 15.8 13.0 74 2.7 N 15 20 8 11 997.7 997.7 0.0
23/08:30am 17.0 15.3 12.5 75 2.5 N 13 17 7 9 997.2 997.2 0.0
23/08:00am 16.3 15.1 11.7 74 2.5 NNE 9 13 5 7 996.7 996.7 0.0
23/07:30am 15.1 12.5 9.5 69 2.9 NE 13 15 7 8 996.2 996.2 0.0
23/07:00am 13.7 11.7 8.7 72 2.5 NNW 9 13 5 7 995.5 995.5 0.0
23/06:30am 12.8 10.3 8.1 73 2.3 NW 11 20 6 11 995.0 995.0 0.0
23/06:00am 13.7 12.3 9.4 75 2.2 NNE 7 13 4 7 994.4 994.4 0.0
23/05:30am 13.3 12.0 9.2 76 2.1 WNW 6 9 3 5 994.4 994.4 0.0
23/05:00am 15.0 13.1 8.9 67 3.1 NNE 9 11 5 6 994.3 994.3 0.0
23/04:30am 14.7 11.7 9.3 70 2.8 NE 15 17 8 9 994.7 994.7 0.0
23/04:00am 16.4 15.1 9.8 65 3.5 SE 7 11 4 6 995.5 995.5 0.0
23/03:30am 16.8 15.1 10.0 64 3.6 S 9 20 5 11 996.2 996.2 0.0
23/03:00am 17.5 14.7 10.1 62 4.0 E 15 19 8 10 996.7 996.7 0.0
23/02:48am 17.4 15.4 10.3 63 3.8 ENE 11 19 6 10 996.7 996.7 0.0
23/02:30am 18.1 15.5 10.7 62 4.0 SSW 15 28 8 15 998.7 998.7 0.0
23/02:00am 16.3 12.1 11.0 71 2.8 SW 24 39 13 21 998.7 998.7 0.0
23/01:57am 15.4 12.5 11.0 75 2.3 WSW 17 39 9 21 998.4 998.4 0.0
23/01:30am 15.1 12.0 10.3 73 2.5 NE 17 19 9 10 997.4 997.4 0.0
23/01:00am 15.8 13.8 10.3 70 2.9 NE 11 15 6 8 998.7 998.7 0.0
23/12:30am 17.9 16.0 10.5 62 4.0 ESE 11 13 6 7 1000.2 1000.2 0.0
23/12:00am 17.0 14.1 11.1 68 3.2 SW 17 24 9 13 1001.6 1001.6 0.0
 
Date/Time
CST
Temp
°C
App
Temp
°C
Dew
Point
°C
Rel
Hum
%
Delta-T
°C
Wind Press
QNH
hPa
Press
MSL
hPa
Rain since
9am
mm
Dir  Spd
km/h
Gust
km/h
Spd
kts
Gust
kts
22/11:30pm 18.0 16.9 10.1 60 4.2 SE 6 20 3 11 1002.2 1002.2 0.0
22/11:00pm 19.2 15.2 10.5 57 4.7 WSW 22 35 12 19 1002.8 1002.8 0.0
22/10:55pm 17.5 14.9 10.6 64 3.7 NNW 15 35 8 19 1002.8 1002.8 0.0
22/10:30pm 17.4 15.8 10.1 62 3.9 NE 9 13 5 7 1001.6 1001.6 0.0
22/10:00pm 19.9 18.5 9.5 51 5.5 E 7 9 4 5 1001.4 1001.4 0.0
22/09:30pm 20.5 19.4 10.0 51 5.7 E 6 7 3 4 1002.5 1002.5 0.0
22/09:00pm 21.0 19.4 8.9 46 6.4 SE 7 11 4 6 1002.5 1002.5 0.0
22/08:30pm 21.4 19.9 9.0 45 6.6 SSE 7 9 4 5 1002.7 1002.7 0.0
22/08:00pm 21.4 19.4 8.7 44 6.7 SSE 9 11 5 6 1002.5 1002.5 0.0
22/07:30pm 21.4 18.8 9.3 46 6.5 SSW 13 17 7 9 1002.5 1002.5 0.0
22/07:00pm 20.7 19.8 10.5 52 5.5 ENE 6 7 3 4 1001.9 1001.9 0.0
22/06:30pm 24.5 22.5 8.5 36 8.6 ENE 9 11 5 6 1001.9 1001.9 0.0
22/06:00pm 23.9 21.5 9.9 41 7.7 NE 13 15 7 8 1001.9 1001.9 0.0

Other Formats:

Comma delimited format used in spreadsheet applications
http://www.bom.gov.au/fwo/IDS60801/IDS60801.95676.axf

JavaScript Object Notation format (JSON) in row-major order
http://www.bom.gov.au/fwo/IDS60801/IDS60801.95676.json